createdAt,value
2019-01-16T00:01:06.952Z,98413.33
2019-01-16T00:05:17.156Z,98412.39
2019-01-16T00:09:22.587Z,98408.59
2019-01-16T00:13:29.908Z,98408.21
2019-01-16T00:17:52.802Z,98406.45
2019-01-16T00:22:02.845Z,98402.02
2019-01-16T00:26:15.704Z,98396.38
2019-01-16T00:30:25.947Z,98394.25
2019-01-16T00:34:39.430Z,98392.48
2019-01-16T00:38:59.781Z,98381.59
2019-01-16T00:43:12.956Z,98378.86
2019-01-16T00:47:20.290Z,98385.00
2019-01-16T00:51:25.770Z,98373.22
2019-01-16T00:55:51.079Z,98363.60
2019-01-16T01:00:47.717Z,98365.38
2019-01-16T01:04:55.037Z,98363.42
2019-01-16T01:09:02.425Z,98363.06
2019-01-16T01:13:18.605Z,98368.84
2019-01-16T01:17:31.972Z,98364.95
2019-01-16T01:21:45.056Z,98360.11
2019-01-16T01:25:54.913Z,98360.31
2019-01-16T01:30:04.684Z,98365.34
2019-01-16T01:34:17.681Z,98358.34
2019-01-16T01:38:25.857Z,98361.80
2019-01-16T01:42:48.995Z,98360.30
2019-01-16T01:47:02.039Z,98361.23
2019-01-16T01:51:09.366Z,98359.48
2019-01-16T01:55:19.409Z,98360.22
2019-01-16T01:59:41.772Z,98363.07
2019-01-16T02:03:49.085Z,98357.08
2019-01-16T02:08:02.247Z,98351.66
2019-01-16T02:12:07.764Z,98355.86
2019-01-16T02:16:15.137Z,98344.69
2019-01-16T02:20:32.704Z,98347.75
2019-01-16T02:24:55.621Z,98336.75
2019-01-16T02:29:18.988Z,98328.06
2019-01-16T02:33:26.332Z,98328.09
2019-01-16T02:37:33.653Z,98316.92
2019-01-16T02:41:52.855Z,98314.62
2019-01-16T02:46:06.827Z,98324.28
2019-01-16T02:50:14.316Z,98319.66
2019-01-16T02:54:21.638Z,98314.67
2019-01-16T02:58:28.963Z,98293.48
2019-01-16T03:02:52.093Z,98289.28
2019-01-16T03:06:59.403Z,98282.95
2019-01-16T03:11:06.799Z,98279.14
2019-01-16T03:15:12.405Z,98280.89
2019-01-16T03:19:37.496Z,98274.73
2019-01-16T03:23:48.795Z,98266.83
2019-01-16T03:27:56.091Z,98277.42
2019-01-16T03:32:03.444Z,98262.19
2019-01-16T03:36:26.607Z,98264.33
2019-01-16T03:40:37.988Z,98251.40
2019-01-16T03:44:57.161Z,98256.79
2019-01-16T03:49:13.249Z,98249.86
2019-01-16T03:53:18.634Z,98239.06
2019-01-16T03:57:28.911Z,98232.70
2019-01-16T04:01:52.104Z,98230.02
2019-01-16T04:05:59.431Z,98214.58
2019-01-16T04:10:10.852Z,98217.25
2019-01-16T04:14:23.857Z,98217.26
2019-01-16T04:18:46.767Z,98212.23
2019-01-16T04:22:56.768Z,98207.02
2019-01-16T04:27:06.797Z,98197.74
2019-01-16T04:31:19.568Z,98200.25
2019-01-16T04:35:26.884Z,98197.55
2019-01-16T04:39:37.160Z,98193.94
2019-01-16T04:43:50.453Z,98193.75
2019-01-16T04:48:06.196Z,98184.69
2019-01-16T04:52:22.620Z,98176.97
2019-01-16T04:56:45.014Z,98181.43
2019-01-16T05:00:52.342Z,98172.40
2019-01-16T05:04:59.656Z,98175.09
2019-01-16T05:09:09.357Z,98175.66
2019-01-16T05:13:34.480Z,98173.91
2019-01-16T05:17:41.818Z,98172.98
2019-01-16T05:21:54.581Z,98163.49
2019-01-16T05:26:07.604Z,98162.15
2019-01-16T05:30:27.396Z,98143.50
2019-01-16T05:34:34.722Z,98131.92
2019-01-16T05:38:45.864Z,98130.77
2019-01-16T05:43:09.315Z,98121.13
2019-01-16T05:47:16.670Z,98121.14
2019-01-16T05:51:30.719Z,98142.70
2019-01-16T05:55:38.038Z,98140.97
2019-01-16T05:59:48.057Z,98135.95
2019-01-16T06:04:11.469Z,98134.43
2019-01-16T06:08:24.830Z,98127.50
2019-01-16T06:12:32.147Z,98129.03
2019-01-16T06:16:39.477Z,98133.06
2019-01-16T06:20:52.758Z,98124.00
2019-01-16T06:25:02.774Z,98129.79
2019-01-16T06:29:10.642Z,98122.62
2019-01-16T06:33:34.208Z,98121.28
2019-01-16T06:37:50.381Z,98118.22
2019-01-16T06:42:03.430Z,98115.16
2019-01-16T06:46:16.558Z,98114.95
2019-01-16T06:50:41.760Z,98114.00
2019-01-16T06:54:55.730Z,98110.14
2019-01-16T06:59:05.745Z,98106.69
2019-01-16T07:03:13.741Z,98099.93
2019-01-16T07:07:29.655Z,98086.06
2019-01-16T07:11:42.890Z,98080.31
2019-01-16T07:15:55.650Z,98085.87
2019-01-16T07:20:09.626Z,98088.52
2019-01-16T07:24:29.052Z,98099.30
2019-01-16T07:28:39.040Z,98099.08
2019-01-16T07:32:51.793Z,98092.97
2019-01-16T07:36:59.117Z,98078.73
2019-01-16T07:41:22.265Z,98076.62
2019-01-16T07:45:29.595Z,98075.64
2019-01-16T07:49:52.907Z,98067.92
2019-01-16T07:54:12.144Z,98060.32
2019-01-16T07:58:22.458Z,98041.91
2019-01-16T08:02:35.447Z,98050.78
2019-01-16T08:07:00.721Z,98055.17
2019-01-16T08:11:08.062Z,98052.59
2019-01-16T08:15:14.014Z,98059.91
2019-01-16T08:19:26.772Z,98059.80
2019-01-16T08:23:43.833Z,98056.35
2019-01-16T08:28:07.072Z,98057.77
2019-01-16T08:32:17.104Z,98054.10
2019-01-16T08:36:30.553Z,98044.48
2019-01-16T08:40:36.066Z,98051.03
2019-01-16T08:44:49.099Z,98043.66
2019-01-16T08:49:03.126Z,98045.89
2019-01-16T08:53:26.318Z,98041.36
2019-01-16T08:57:51.567Z,98039.10
2019-01-16T09:02:15.120Z,98032.73
2019-01-16T09:06:31.542Z,98017.09
2019-01-16T09:10:54.599Z,98020.33
2019-01-16T09:15:18.013Z,98026.00
2019-01-16T09:19:34.183Z,98023.50
2019-01-16T09:23:57.492Z,98018.66
2019-01-16T09:28:07.685Z,98012.85
2019-01-16T09:32:17.707Z,98009.60
2019-01-16T09:36:28.722Z,97993.21
2019-01-16T09:40:34.184Z,98001.81
2019-01-16T09:44:47.953Z,97998.30
2019-01-16T09:49:10.886Z,97988.09
2019-01-16T09:53:28.534Z,97989.69
2019-01-16T09:57:41.537Z,97981.44
2019-01-16T10:06:12.818Z,97968.06
2019-01-16T10:10:42.792Z,97955.11
2019-01-16T10:15:04.996Z,97955.25
2019-01-16T10:19:25.370Z,97945.94
2019-01-16T10:23:48.701Z,97942.80
2019-01-16T10:27:56.147Z,97937.28
2019-01-16T10:32:27.393Z,97928.69
2019-01-16T10:36:43.504Z,97918.34
2019-01-16T10:40:48.953Z,97923.72
2019-01-16T10:45:04.962Z,97917.48
2019-01-16T10:49:12.276Z,97908.39
2019-01-16T10:53:35.448Z,97898.64
2019-01-16T10:57:45.536Z,97895.81
2019-01-16T11:01:52.869Z,97895.98
2019-01-16T11:06:00.188Z,97885.62
2019-01-16T11:10:28.050Z,97874.89
2019-01-16T11:14:47.141Z,97868.96
2019-01-16T11:18:52.740Z,97861.02
2019-01-16T11:23:15.942Z,97850.02
2019-01-16T11:27:38.127Z,97841.34
2019-01-16T11:31:46.325Z,97834.38
2019-01-16T11:35:56.728Z,97835.77
2019-01-16T11:40:04.732Z,97824.28
2019-01-16T11:44:15.213Z,97811.88
2019-01-16T11:48:32.105Z,97814.96
2019-01-16T11:52:44.894Z,97807.55
2019-01-16T11:56:54.617Z,97796.58
2019-01-16T12:01:10.552Z,97796.41
2019-01-16T12:05:23.825Z,97785.59
2019-01-16T12:09:33.885Z,97773.47
2019-01-16T12:13:41.219Z,97766.88
2019-01-16T12:17:51.437Z,97754.53
2019-01-16T12:22:01.629Z,97742.84
2019-01-16T12:26:21.228Z,97736.54
2019-01-16T12:30:42.141Z,97729.96
2019-01-16T12:34:58.178Z,97724.40
2019-01-16T12:39:10.848Z,97713.36
2019-01-16T12:43:24.260Z,97706.80
2019-01-16T12:47:41.212Z,97698.38
2019-01-16T12:51:51.601Z,97690.86
2019-01-16T12:55:57.594Z,97677.55
2019-01-16T13:00:12.044Z,97674.11
2019-01-16T13:04:31.040Z,97674.02
2019-01-16T13:08:41.071Z,97669.58
2019-01-16T13:13:04.232Z,97665.31
2019-01-16T13:17:27.541Z,97657.55
2019-01-16T13:21:40.460Z,97654.22
2019-01-16T13:25:50.577Z,97647.22
2019-01-16T13:30:09.718Z,97649.24
2019-01-16T13:34:33.196Z,97641.46
2019-01-16T13:38:46.221Z,97627.84
2019-01-16T13:42:59.635Z,97631.84
2019-01-16T13:47:19.412Z,97620.75
2019-01-16T13:51:26.811Z,97624.02
2019-01-16T13:55:52.148Z,97609.48
2019-01-16T14:00:16.230Z,97610.61
2019-01-16T14:04:29.329Z,97610.35
2019-01-16T14:08:48.478Z,97595.80
2019-01-16T14:13:09.010Z,97596.09
2019-01-16T14:17:32.397Z,97582.81
2019-01-16T14:21:45.479Z,97587.33
2019-01-16T14:26:10.793Z,97587.78
2019-01-16T14:30:22.334Z,97567.39
2019-01-16T14:34:38.515Z,97565.36
2019-01-16T14:38:48.542Z,97557.73
2019-01-16T14:42:56.812Z,97556.38
2019-01-16T14:47:20.101Z,97540.98
2019-01-16T14:51:30.444Z,97534.31
2019-01-16T14:55:55.705Z,97536.46
2019-01-16T15:00:03.115Z,97541.70
2019-01-16T15:04:22.648Z,97533.80
2019-01-16T15:08:31.075Z,97538.28
2019-01-16T15:12:44.323Z,97530.73
2019-01-16T15:16:57.319Z,97533.06
2019-01-16T15:21:05.511Z,97534.04
2019-01-16T15:25:11.091Z,97528.27
2019-01-16T15:29:16.532Z,97518.26
2019-01-16T15:33:23.853Z,97518.96
2019-01-16T15:37:33.618Z,97513.69
2019-01-16T15:41:41.095Z,97504.38
2019-01-16T15:45:48.505Z,97501.66
2019-01-16T15:49:58.325Z,97500.31
2019-01-16T15:54:23.961Z,97496.75
2019-01-16T15:58:30.806Z,97486.98
2019-01-16T16:02:50.083Z,97482.73
2019-01-16T16:06:57.571Z,97484.06
2019-01-16T16:11:21.757Z,97471.80
2019-01-16T16:15:27.320Z,97465.89
2019-01-16T16:19:34.633Z,97463.56
2019-01-16T16:23:42.030Z,97454.92
2019-01-16T16:27:53.246Z,97454.79
2019-01-16T16:32:06.548Z,97465.84
2019-01-16T16:36:14.985Z,97458.58
2019-01-16T16:40:32.164Z,97466.30
2019-01-16T16:44:42.923Z,97460.06
2019-01-16T16:49:02.611Z,97457.42
2019-01-16T16:53:09.923Z,97453.00
2019-01-16T16:57:22.680Z,97446.66
2019-01-16T17:01:35.769Z,97439.62
2019-01-16T17:05:43.093Z,97429.94
2019-01-16T17:09:50.423Z,97426.25
2019-01-16T17:13:57.770Z,97428.98
2019-01-16T17:18:06.205Z,97423.81
2019-01-16T17:22:32.428Z,97424.78
2019-01-16T17:26:39.140Z,97420.20
2019-01-16T17:30:46.497Z,97420.72
2019-01-16T17:34:54.873Z,97415.12
2019-01-16T17:39:07.907Z,97416.66
2019-01-16T17:43:28.411Z,97413.44
2019-01-16T17:47:41.284Z,97403.25
2019-01-16T17:52:00.442Z,97391.80
2019-01-16T17:56:23.584Z,97384.16
2019-01-16T18:00:30.929Z,97383.05
2019-01-16T18:04:57.509Z,97382.61
2019-01-16T18:09:10.658Z,97375.20
2019-01-16T18:13:34.251Z,97368.83
2019-01-16T18:17:56.254Z,97362.34
2019-01-16T18:22:05.352Z,97369.84
2019-01-16T18:26:20.307Z,97368.54
2019-01-16T18:30:25.840Z,97366.17
2019-01-16T18:34:56.797Z,97360.84
2019-01-16T18:39:09.815Z,97364.03
2019-01-16T18:43:22.884Z,97366.18
2019-01-16T18:47:50.959Z,97364.38
2019-01-16T18:52:14.468Z,97368.12
2019-01-16T18:56:30.846Z,97366.66
2019-01-16T19:00:54.183Z,97367.45
2019-01-16T19:04:59.769Z,97363.67
2019-01-16T19:09:17.490Z,97358.50
2019-01-16T19:13:24.794Z,97353.50
2019-01-16T19:17:32.317Z,97352.66
2019-01-16T19:21:54.828Z,97347.64
2019-01-16T19:26:11.197Z,97350.75
2019-01-16T19:30:27.973Z,97357.22
2019-01-16T19:34:44.004Z,97343.38
2019-01-16T19:39:10.298Z,97333.78
2019-01-16T19:43:20.707Z,97338.38
2019-01-16T19:47:51.829Z,97332.45
2019-01-16T19:52:10.766Z,97336.36
2019-01-16T19:56:21.207Z,97345.80
2019-01-16T20:00:40.655Z,97350.03
2019-01-16T20:04:59.818Z,97350.79
2019-01-16T20:09:09.158Z,97348.22
2019-01-16T20:13:56.466Z,97343.78
2019-01-16T20:18:19.919Z,97333.40
2019-01-16T20:22:30.229Z,97341.13
2019-01-16T20:26:40.494Z,97335.64
2019-01-16T20:31:04.876Z,97336.75
2019-01-16T20:35:27.223Z,97332.50
2019-01-16T20:39:34.826Z,97331.46
2019-01-16T20:43:42.170Z,97331.27
2019-01-16T20:48:05.492Z,97327.16
2019-01-16T20:52:26.154Z,97322.23
2019-01-16T20:56:33.538Z,97322.45
2019-01-16T21:00:46.983Z,97311.62
2019-01-16T21:05:09.929Z,97311.87
2019-01-16T21:09:20.428Z,97308.42
2019-01-16T21:13:30.814Z,97309.05
2019-01-16T21:17:44.085Z,97308.34
2019-01-16T21:21:49.581Z,97309.38
2019-01-16T21:26:01.272Z,97309.67
2019-01-16T21:30:20.121Z,97315.41
2019-01-16T21:34:32.882Z,97303.94
2019-01-16T21:38:42.864Z,97295.83
2019-01-16T21:42:52.878Z,97304.36
2019-01-16T21:47:01.816Z,97308.30
2019-01-16T21:51:15.062Z,97314.33
2019-01-16T21:55:23.464Z,97312.70
2019-01-16T21:59:39.686Z,97310.23
2019-01-16T22:03:58.740Z,97307.91
2019-01-16T22:08:09.044Z,97316.27
2019-01-16T22:12:19.486Z,97309.36
2019-01-16T22:17:06.800Z,97309.34
2019-01-16T22:21:50.099Z,97311.59
2019-01-16T22:26:06.488Z,97303.84
2019-01-16T22:30:58.731Z,97310.94
2019-01-16T22:35:21.963Z,97305.71
2019-01-16T22:39:45.145Z,97308.42
2019-01-16T22:43:52.483Z,97302.16
2019-01-16T22:53:11.540Z,97298.94
2019-01-16T22:57:18.888Z,97300.48
2019-01-16T23:01:29.326Z,97294.19
2019-01-16T23:05:36.653Z,97290.81
2019-01-16T23:09:52.855Z,97282.55
2019-01-16T23:14:16.410Z,97281.52
2019-01-16T23:18:24.909Z,97284.41
2019-01-16T23:22:45.233Z,97281.52
2019-01-16T23:27:10.108Z,97278.14
2019-01-16T23:31:17.575Z,97275.00
2019-01-16T23:35:27.897Z,97273.48
2019-01-16T23:39:40.978Z,97269.33
2019-01-16T23:44:00.143Z,97273.63
2019-01-16T23:48:13.329Z,97269.99
2019-01-16T23:52:20.645Z,97269.05
2019-01-16T23:56:30.821Z,97265.40
